Time;durP1;ratioP1;P1;durP2;ratioP2;P2;SDS_P1;SDS_P2;PMS_P1;PMS_P2;Temp;Humidity;BMP_temperature;BMP_pressure;BME280_temperature;BME280_humidity;BME280_pressure;Samples;Min_cycle;Max_cycle;Signal;HPM_P1;HPM_P2
2022/01/13 00:02:24;;;;;;;;;30.50;28.00;;;;;21.49;46.85;102395.95;112311;1247;18686;-66
2022/01/13 00:04:50;;;;;;;;;34.00;27.00;;;;;21.49;46.78;102390.80;112343;1248;19666;-68
2022/01/13 00:07:16;;;;;;;;;33.00;26.00;;;;;21.48;46.80;102384.23;112216;1247;18508;-67
2022/01/13 00:09:43;;;;;;;;;33.00;28.00;;;;;21.48;46.80;102376.57;112194;1248;20110;-66
2022/01/13 00:12:09;;;;;;;;;31.67;29.00;;;;;21.48;46.84;102370.36;112209;1247;20993;-66
2022/01/13 00:14:41;;;;;;;;;29.50;25.50;;;;;21.47;46.59;102364.67;112278;1248;18853;-67
2022/01/13 00:17:21;;;;;;;;;30.00;28.00;;;;;21.47;46.88;102365.38;112305;1248;19054;-67
2022/01/13 00:19:56;;;;;;;;;31.00;27.00;;;;;21.46;46.81;102353.80;112342;1248;21048;-67
2022/01/13 00:22:37;;;;;;;;;32.33;25.67;;;;;21.46;46.74;102346.89;112314;1248;18666;-67
2022/01/13 00:25:04;;;;;;;;;29.00;26.33;;;;;21.46;46.72;102346.00;112927;1242;19579;-67
2022/01/13 00:27:30;;;;;;;;;30.33;25.00;;;;;21.46;46.74;102348.33;113096;1242;19775;-67
2022/01/13 00:29:59;;;;;;;;;31.00;26.00;;;;;21.46;46.78;102346.91;113072;1242;22957;-67
2022/01/13 00:32:29;;;;;;;;;30.00;28.50;;;;;21.46;46.72;102345.45;113147;1242;18776;-65
2022/01/13 00:34:55;;;;;;;;;29.67;28.00;;;;;21.46;46.74;102349.98;113082;1242;22118;-66
2022/01/13 00:37:20;;;;;;;;;29.50;26.00;;;;;21.45;46.71;102356.85;113127;1242;20976;-66
2022/01/13 00:39:46;;;;;;;;;26.00;24.50;;;;;21.46;46.74;102366.70;113057;1242;18574;-66
2022/01/13 00:42:12;;;;;;;;;28.50;24.50;;;;;21.46;46.81;102352.14;113021;1241;19243;-68
2022/01/13 00:44:38;;;;;;;;;26.00;22.00;;;;;21.46;46.58;102351.80;113029;1242;18619;-66
2022/01/13 00:47:06;;;;;;;;;28.00;25.00;;;;;21.45;46.62;102341.31;112994;1241;19009;-68
2022/01/13 00:49:32;;;;;;;;;27.67;25.00;;;;;21.46;46.68;102344.36;113075;1242;20878;-69
2022/01/13 00:51:58;;;;;;;;;26.50;23.00;;;;;21.46;46.75;102350.39;113055;1242;18692;-67
2022/01/13 00:54:24;;;;;;;;;31.00;27.00;;;;;21.46;46.71;102350.88;113017;1241;20334;-67
2022/01/13 00:56:51;;;;;;;;;28.67;25.00;;;;;21.46;46.66;102348.33;113008;1242;20182;-67
2022/01/13 00:59:17;;;;;;;;;29.00;23.00;;;;;21.46;46.61;102349.27;113002;1242;20078;-67
2022/01/13 01:01:42;;;;;;;;;28.50;25.00;;;;;21.45;46.61;102351.16;113048;1241;18581;-66
2022/01/13 01:04:08;;;;;;;;;25.00;22.00;;;;;21.46;46.69;102360.01;113028;1242;19143;-67
2022/01/13 01:06:34;;;;;;;;;24.00;22.00;;;;;21.45;46.60;102357.30;113062;1242;22095;-66
2022/01/13 01:09:00;;;;;;;;;30.00;26.00;;;;;21.46;46.62;102352.02;113118;1241;19565;-67
2022/01/13 01:11:26;;;;;;;;;25.00;24.00;;;;;21.45;46.61;102343.55;113103;1242;19255;-66
2022/01/13 01:13:52;;;;;;;;;27.67;24.33;;;;;21.45;46.83;102342.09;113122;1241;19048;-67
2022/01/13 01:16:18;;;;;;;;;28.50;23.00;;;;;21.45;46.65;102337.55;113031;1241;18487;-66
2022/01/13 01:18:53;;;;;;;;;26.00;22.33;;;;;21.44;46.56;102342.70;112989;1242;21341;-69
2022/01/13 01:27:00;;;;;;;;;27.00;25.00;;;;;21.43;46.66;102342.61;112525;1245;19485;-68
2022/01/13 01:29:29;;;;;;;;;26.00;21.67;;;;;21.43;46.60;102337.15;112544;1245;18712;-66
2022/01/13 01:31:55;;;;;;;;;23.00;22.00;;;;;21.42;46.73;102338.36;112506;1245;20291;-67
2022/01/13 01:34:34;;;;;;;;;29.00;22.00;;;;;21.42;46.51;102343.08;112499;1245;19436;-67
2022/01/13 01:37:00;;;;;;;;;25.33;22.00;;;;;21.42;46.67;102342.36;112543;1246;22016;-67
2022/01/13 01:39:26;;;;;;;;;20.50;18.00;;;;;21.39;46.55;102329.52;112511;1245;19357;-66
2022/01/13 01:41:52;;;;;;;;;25.00;20.00;;;;;21.42;46.66;102330.52;112499;1245;20164;-66
2022/01/13 01:44:18;;;;;;;;;23.00;18.00;;;;;21.42;46.48;102326.60;112519;1245;19080;-66
2022/01/13 01:46:45;;;;;;;;;21.67;21.00;;;;;21.41;46.61;102323.23;112577;1245;19419;-67
2022/01/13 01:49:15;;;;;;;;;22.00;20.00;;;;;21.41;46.39;102322.67;112433;1245;19485;-67
2022/01/13 01:51:41;;;;;;;;;25.00;21.00;;;;;21.41;46.48;102321.34;112457;1245;20069;-67
2022/01/13 01:54:07;;;;;;;;;28.50;22.00;;;;;21.42;46.47;102316.61;112462;1246;18678;-65
2022/01/13 01:56:33;;;;;;;;;25.00;22.00;;;;;21.42;46.49;102308.42;112444;1246;19253;-67
2022/01/13 01:59:02;;;;;;;;;21.00;17.33;;;;;21.41;46.71;102305.00;112471;1245;18677;-67
2022/01/13 02:01:28;;;;;;;;;20.50;17.50;;;;;21.41;46.49;102299.37;112744;1242;20755;-68
2022/01/13 02:03:54;;;;;;;;;20.00;18.00;;;;;21.41;46.53;102285.17;113054;1241;19271;-67
2022/01/13 02:06:20;;;;;;;;;26.00;20.00;;;;;21.41;46.55;102280.27;113021;1241;18458;-67
2022/01/13 02:08:46;;;;;;;;;23.00;20.00;;;;;21.40;46.62;102273.98;113009;1241;20202;-68
2022/01/13 02:11:12;;;;;;;;;21.00;20.00;;;;;21.41;46.60;102270.31;113006;1242;19312;-68
2022/01/13 02:13:45;;;;;;;;;21.50;18.00;;;;;21.40;46.32;102270.36;113115;1242;20005;-68
2022/01/13 02:16:35;;;;;;;;;27.33;24.00;;;;;21.41;46.45;102260.31;113113;1242;20082;-68
2022/01/13 02:18:57;;;;;;;;;23.67;18.00;;;;;21.40;46.43;102250.00;113055;1242;19475;-68
2022/01/13 02:21:25;;;;;;;;;22.00;17.50;;;;;21.40;46.40;102242.02;113100;1241;19116;-68
2022/01/13 02:23:51;;;;;;;;;23.00;20.67;;;;;21.40;46.47;102232.55;113024;1242;18809;-68
2022/01/13 02:26:41;;;;;;;;;20.67;17.00;;;;;21.40;46.53;102227.05;112984;1242;20519;-68
2022/01/13 02:29:32;;;;;;;;;21.00;17.67;;;;;21.40;46.38;102228.52;113059;1242;18770;-68
2022/01/13 02:32:23;;;;;;;;;20.50;18.50;;;;;21.40;46.42;102231.61;113043;1242;18982;-66
2022/01/13 02:35:14;;;;;;;;;23.00;19.67;;;;;21.40;46.34;102240.73;113054;1242;19591;-66
2022/01/13 02:38:05;;;;;;;;;18.00;17.00;;;;;21.39;46.39;102240.44;112976;1242;23013;-66
2022/01/13 02:40:56;;;;;;;;;22.00;17.67;;;;;21.36;46.45;102229.84;112982;1242;18752;-66
2022/01/13 02:43:47;;;;;;;;;18.00;16.00;;;;;21.39;46.49;102246.27;112981;1242;19403;-68
2022/01/13 02:46:56;;;;;;;;;17.50;17.00;;;;;21.40;46.49;102248.23;113074;1241;20487;-68
2022/01/13 02:49:46;;;;;;;;;19.00;15.33;;;;;21.39;46.44;102232.80;113001;1242;18878;-66
2022/01/13 02:52:37;;;;;;;;;17.00;14.33;;;;;21.39;46.59;102220.80;113023;1241;22019;-66
2022/01/13 02:55:28;;;;;;;;;20.33;17.00;;;;;21.40;46.54;102213.81;113034;1242;18665;-66
2022/01/13 02:58:19;;;;;;;;;18.00;14.67;;;;;21.39;46.43;102207.19;112986;1241;18740;-66
2022/01/13 03:01:10;;;;;;;;;18.00;17.00;;;;;21.39;46.52;102193.73;113057;1242;21843;-67
2022/01/13 03:04:05;;;;;;;;;17.00;17.00;;;;;21.38;46.32;102186.14;112971;1241;23053;-66
2022/01/13 03:06:56;;;;;;;;;16.67;16.67;;;;;21.38;46.40;102187.64;112955;1241;19803;-68
2022/01/13 03:09:47;;;;;;;;;16.00;14.00;;;;;21.38;46.33;102185.05;113005;1242;19503;-65
2022/01/13 03:12:42;;;;;;;;;20.00;18.00;;;;;21.38;46.37;102175.13;112939;1242;18649;-67
2022/01/13 03:15:33;;;;;;;;;16.67;16.00;;;;;21.38;46.46;102172.59;112979;1242;18749;-67
2022/01/13 03:18:24;;;;;;;;;21.33;17.00;;;;;21.37;46.43;102177.17;113019;1242;19513;-68
2022/01/13 03:21:15;;;;;;;;;17.00;14.00;;;;;21.37;46.59;102176.83;112984;1241;22656;-68
2022/01/13 03:24:09;;;;;;;;;18.33;15.67;;;;;21.37;46.45;102171.77;112970;1241;24035;-67
2022/01/13 03:27:02;;;;;;;;;15.33;14.00;;;;;21.37;46.33;102169.16;113011;1242;19398;-68
2022/01/13 03:29:54;;;;;;;;;20.00;17.00;;;;;21.37;46.38;102167.72;112966;1241;21201;-65
2022/01/13 03:32:44;;;;;;;;;16.33;12.33;;;;;21.37;46.45;102167.41;113025;1241;24536;-69
2022/01/13 03:35:35;;;;;;;;;17.33;14.67;;;;;21.38;46.49;102166.42;112997;1242;22221;-66
2022/01/13 03:38:26;;;;;;;;;16.67;13.00;;;;;21.37;46.28;102168.88;112972;1241;18849;-68
2022/01/13 03:41:17;;;;;;;;;13.33;12.00;;;;;21.37;46.44;102157.55;113053;1242;18829;-68
2022/01/13 03:44:16;;;;;;;;;16.33;14.67;;;;;21.37;46.41;102151.93;113006;1242;19395;-69
2022/01/13 03:47:09;;;;;;;;;18.00;16.00;;;;;21.35;46.30;102137.69;112834;1242;18837;-66
2022/01/13 03:49:54;;;;;;;;;17.00;15.33;;;;;21.35;46.44;102136.83;112888;1241;18829;-66
2022/01/13 03:52:38;;;;;;;;;13.00;12.33;;;;;21.35;46.49;102127.70;113029;1242;20263;-66
2022/01/13 03:55:22;;;;;;;;;13.00;13.00;;;;;21.36;46.30;102129.83;112874;1242;18906;-66
2022/01/13 03:58:06;;;;;;;;;14.00;13.33;;;;;21.37;46.27;102126.15;112875;1242;20886;-66
2022/01/13 04:00:50;;;;;;;;;17.67;16.00;;;;;21.36;46.29;102114.36;112830;1242;19599;-67
2022/01/13 04:03:42;;;;;;;;;15.00;13.00;;;;;21.35;46.53;102110.61;112972;1242;18633;-67
2022/01/13 04:06:32;;;;;;;;;14.00;13.00;;;;;21.35;46.38;102106.60;112945;1242;18730;-65
2022/01/13 04:09:23;;;;;;;;;16.00;13.00;;;;;21.36;46.34;102114.04;113020;1241;23927;-66
2022/01/13 04:12:14;;;;;;;;;13.00;11.67;;;;;21.36;46.42;102122.56;112961;1242;18717;-67
2022/01/13 04:15:05;;;;;;;;;13.00;10.00;;;;;21.36;46.38;102132.70;112946;1242;18830;-68
2022/01/13 04:17:57;;;;;;;;;16.33;14.00;;;;;21.36;46.46;102136.02;112983;1242;22500;-67
2022/01/13 04:20:47;;;;;;;;;13.00;12.00;;;;;21.35;46.24;102119.73;112966;1242;22033;-67
2022/01/13 04:23:39;;;;;;;;;16.00;14.00;;;;;21.34;46.35;102117.82;112988;1241;21445;-67
2022/01/13 04:26:30;;;;;;;;;14.33;13.33;;;;;21.33;46.44;102111.56;112939;1241;19708;-67
2022/01/13 04:29:30;;;;;;;;;14.33;12.67;;;;;21.33;46.41;102119.02;112934;1241;23017;-67
2022/01/13 04:32:20;;;;;;;;;14.67;13.67;;;;;21.34;46.28;102135.42;112944;1242;18730;-66
2022/01/13 04:35:11;;;;;;;;;10.67;10.00;;;;;21.33;46.45;102122.21;113018;1241;19383;-66
2022/01/13 04:38:02;;;;;;;;;13.00;12.00;;;;;21.33;46.25;102123.39;113066;1242;19838;-68
2022/01/13 04:40:56;;;;;;;;;13.00;10.00;;;;;21.33;46.43;102124.14;113071;1242;18734;-68
2022/01/13 04:43:46;;;;;;;;;12.00;12.00;;;;;21.33;46.42;102127.33;113015;1241;19534;-67
2022/01/13 04:46:37;;;;;;;;;15.33;13.00;;;;;21.32;46.26;102108.76;113050;1242;18744;-67
2022/01/13 04:49:29;;;;;;;;;12.00;10.00;;;;;21.32;46.21;102102.69;112977;1241;22188;-66
2022/01/13 04:52:19;;;;;;;;;11.33;11.33;;;;;21.33;46.04;102108.40;112959;1241;23184;-66
2022/01/13 04:55:12;;;;;;;;;13.33;12.33;;;;;21.34;46.11;102099.65;112984;1241;18635;-68
2022/01/13 04:58:03;;;;;;;;;12.00;10.00;;;;;21.34;45.91;102095.25;112943;1242;18868;-67
2022/01/13 05:00:54;;;;;;;;;12.67;11.33;;;;;21.35;45.74;102098.85;113031;1241;22616;-67
2022/01/13 05:03:45;;;;;;;;;12.00;9.00;;;;;21.35;45.88;102095.51;113040;1241;22131;-66
2022/01/13 05:06:36;;;;;;;;;10.00;10.00;;;;;21.35;45.65;102090.27;113058;1242;18813;-66
2022/01/13 05:09:27;;;;;;;;;11.33;9.67;;;;;21.36;45.67;102084.58;113035;1241;19395;-65
2022/01/13 05:12:18;;;;;;;;;12.00;12.00;;;;;21.34;45.77;102083.59;112940;1240;18658;-66
2022/01/13 05:15:11;;;;;;;;;14.00;13.00;;;;;21.33;45.70;102082.59;112975;1241;18740;-65
2022/01/13 05:18:10;;;;;;;;;12.50;10.00;;;;;21.34;45.80;102082.19;112859;1242;21315;-65
2022/01/13 05:21:01;;;;;;;;;10.67;9.67;;;;;21.33;45.58;102080.24;112946;1241;20383;-67
2022/01/13 05:23:52;;;;;;;;;14.67;13.00;;;;;21.33;45.64;102084.61;112958;1242;18821;-68
2022/01/13 05:26:42;;;;;;;;;6.67;6.67;;;;;21.34;45.54;102089.95;112976;1241;19388;-67
2022/01/13 05:29:33;;;;;;;;;12.67;11.33;;;;;21.34;45.64;102083.60;112979;1241;18794;-66
2022/01/13 05:32:24;;;;;;;;;13.00;10.00;;;;;21.33;45.57;102078.97;112919;1241;18800;-68
2022/01/13 05:35:15;;;;;;;;;10.67;10.00;;;;;21.33;45.52;102075.66;112948;1241;19486;-68
2022/01/13 05:38:06;;;;;;;;;10.00;10.00;;;;;21.33;45.46;102067.69;112928;1240;18784;-65
2022/01/13 05:40:58;;;;;;;;;15.33;12.67;;;;;21.34;45.54;102069.85;113035;1241;23749;-66
2022/01/13 05:43:49;;;;;;;;;13.33;12.67;;;;;21.33;45.57;102063.50;112976;1242;19293;-66
2022/01/13 05:46:40;;;;;;;;;13.00;12.00;;;;;21.35;45.47;102065.71;112938;1241;18807;-67
2022/01/13 05:49:31;;;;;;;;;10.00;10.00;;;;;21.34;45.58;102050.35;113029;1242;19153;-66
2022/01/13 05:52:22;;;;;;;;;12.67;10.00;;;;;21.34;45.48;102041.98;113037;1242;23856;-67
2022/01/13 05:55:13;;;;;;;;;10.67;9.67;;;;;21.34;45.59;102028.02;113002;1241;18793;-67
2022/01/13 05:58:04;;;;;;;;;10.00;10.00;;;;;21.33;45.70;102014.27;113032;1241;18794;-67
2022/01/13 06:00:55;;;;;;;;;15.67;10.00;;;;;21.33;45.69;102016.48;112949;1241;19486;-66
2022/01/13 06:03:46;;;;;;;;;12.00;10.00;;;;;21.33;45.62;102015.67;112940;1241;18738;-66
2022/01/13 06:06:37;;;;;;;;;14.00;10.00;;;;;21.34;45.61;102012.89;113063;1241;18761;-66
2022/01/13 06:09:28;;;;;;;;;13.33;9.67;;;;;21.34;45.49;102023.98;113040;1241;19488;-66
2022/01/13 06:12:30;;;;;;;;;12.67;10.00;;;;;21.33;45.52;102028.11;113013;1242;18648;-66
2022/01/13 06:15:21;;;;;;;;;11.33;11.33;;;;;21.32;45.62;102009.42;112990;1242;21955;-66
2022/01/13 06:18:12;;;;;;;;;12.00;9.33;;;;;21.33;45.73;102001.58;112887;1241;19373;-68
2022/01/13 06:21:03;;;;;;;;;9.00;9.00;;;;;21.31;45.61;101989.73;112933;1242;18686;-68
2022/01/13 06:23:55;;;;;;;;;10.67;10.00;;;;;21.32;45.75;101963.46;112949;1242;18908;-66
2022/01/13 06:26:45;;;;;;;;;10.00;9.00;;;;;21.34;45.61;101948.92;113006;1241;19386;-67
2022/01/13 06:29:36;;;;;;;;;12.00;10.00;;;;;21.32;45.80;101958.19;112945;1242;18800;-66
2022/01/13 06:32:28;;;;;;;;;10.00;9.00;;;;;21.31;45.98;101955.89;112939;1241;22122;-66
2022/01/13 06:35:19;;;;;;;;;9.33;8.67;;;;;21.31;45.97;101971.77;112973;1241;19496;-67
2022/01/13 06:38:09;;;;;;;;;14.00;13.00;;;;;21.33;45.76;101972.85;112964;1242;18646;-68
2022/01/13 06:41:01;;;;;;;;;14.00;10.00;;;;;21.39;45.84;101962.77;113005;1241;18753;-67
2022/01/13 06:43:52;;;;;;;;;12.00;10.00;;;;;21.43;46.12;101968.00;112998;1240;61969;-75
2022/01/13 06:46:43;;;;;;;;;12.00;10.33;;;;;21.43;46.63;101977.48;112190;1240;18794;-73
2022/01/13 06:49:13;;;;;;;;;13.50;11.00;;;;;21.45;46.67;101963.21;112157;1242;19299;-73
2022/01/13 06:51:38;;;;;;;;;10.00;10.00;;;;;21.48;46.68;101958.04;112210;1242;19367;-73
2022/01/13 06:54:05;;;;;;;;;10.00;10.00;;;;;21.51;46.58;101943.61;112258;1242;18410;-73
2022/01/13 06:56:31;;;;;;;;;9.50;9.00;;;;;21.53;47.18;101947.53;112381;1242;21354;-74
2022/01/13 06:58:57;;;;;;;;;13.00;9.00;;;;;21.57;47.27;101942.25;112399;1241;19446;-73
2022/01/13 07:01:24;;;;;;;;;9.33;8.67;;;;;21.59;47.43;101939.29;112341;1242;18468;-73
2022/01/13 07:03:50;;;;;;;;;13.00;10.00;;;;;21.61;47.54;101949.49;112283;1241;19724;-72
2022/01/13 07:06:16;;;;;;;;;9.33;8.00;;;;;21.61;47.63;101946.25;112432;1242;19337;-73
2022/01/13 07:08:42;;;;;;;;;12.00;10.00;;;;;21.61;47.49;101949.52;112303;1241;19848;-73
2022/01/13 07:11:08;;;;;;;;;8.50;8.50;;;;;21.60;47.96;101944.88;112050;1242;18561;-73
2022/01/13 07:13:35;;;;;;;;;9.00;8.00;;;;;21.55;47.91;101944.30;112443;1241;19369;-74
2022/01/13 07:16:02;;;;;;;;;10.00;9.50;;;;;21.56;47.99;101965.60;112184;1241;18608;-72
2022/01/13 07:18:29;;;;;;;;;10.00;10.00;;;;;21.54;48.35;101959.80;112179;1241;18898;-72
2022/01/13 07:20:56;;;;;;;;;15.33;11.33;;;;;21.57;48.39;101960.39;112387;1242;19427;-73
2022/01/13 07:23:22;;;;;;;;;10.67;9.00;;;;;21.59;48.11;101972.05;112406;1242;18832;-72
2022/01/13 07:25:49;;;;;;;;;9.00;8.33;;;;;21.57;48.73;101980.24;112449;1241;18667;-73
2022/01/13 07:28:15;;;;;;;;;10.00;9.00;;;;;21.59;48.65;101983.89;112440;1241;19521;-74
2022/01/13 07:30:41;;;;;;;;;9.50;9.00;;;;;21.60;48.62;101984.48;112533;1242;18149;-75
2022/01/13 07:33:08;;;;;;;;;11.00;10.50;;;;;21.58;48.51;101969.19;112390;1241;18509;-76
2022/01/13 07:35:34;;;;;;;;;9.00;8.50;;;;;21.60;48.54;101974.01;112466;1242;19723;-76
2022/01/13 07:38:00;;;;;;;;;12.00;9.00;;;;;21.63;48.11;101968.06;112451;1241;18697;-75
2022/01/13 07:40:27;;;;;;;;;10.67;10.67;;;;;21.61;48.08;101962.39;112438;1242;19026;-75
2022/01/13 07:42:53;;;;;;;;;10.00;9.67;;;;;21.59;48.09;101965.91;112378;1242;20389;-74
2022/01/13 07:45:19;;;;;;;;;12.00;9.33;;;;;21.55;48.00;101972.96;112454;1242;18613;-74
2022/01/13 07:47:45;;;;;;;;;12.00;10.00;;;;;21.53;47.95;101982.34;112442;1242;18614;-75
2022/01/13 07:50:12;;;;;;;;;9.67;9.67;;;;;21.50;47.92;101979.38;112387;1242;19535;-76
2022/01/13 07:52:39;;;;;;;;;15.33;9.00;;;;;21.47;47.78;101974.70;112370;1242;18755;-74
2022/01/13 07:55:05;;;;;;;;;9.00;8.67;;;;;21.43;47.89;101973.26;112285;1242;22022;-76
2022/01/13 07:57:31;;;;;;;;;9.00;9.00;;;;;21.43;47.92;101968.07;112403;1241;21244;-77
2022/01/13 07:59:57;;;;;;;;;9.00;9.00;;;;;21.46;48.21;101976.08;112410;1242;18541;-76
2022/01/13 08:02:23;;;;;;;;;9.33;9.00;;;;;21.45;47.89;101973.96;112351;1242;18632;-74
2022/01/13 08:04:50;;;;;;;;;11.33;10.00;;;;;21.45;47.91;101973.27;112311;1241;20832;-74
2022/01/13 08:07:16;;;;;;;;;8.67;7.33;;;;;21.44;48.16;101975.73;112308;1241;18307;-76
2022/01/13 08:09:42;;;;;;;;;40.33;34.00;;;;;21.46;47.96;101965.52;112410;1240;23106;-75
2022/01/13 08:12:09;;;;;;;;;71.00;56.00;;;;;21.48;48.14;101969.56;112410;1240;19442;-74
2022/01/13 08:14:35;;;;;;;;;90.00;67.00;;;;;21.45;48.10;101969.63;112334;1241;22897;-77
2022/01/13 08:17:03;;;;;;;;;120.50;86.00;;;;;21.25;47.22;101964.48;112358;1242;18745;-75
2022/01/13 08:22:15;;;;;;;;;103.50;74.00;;;;;21.17;46.83;101979.11;112296;1240;18984;-75
2022/01/13 08:24:42;;;;;;;;;99.33;71.00;;;;;21.28;46.67;101975.63;112309;1242;18933;-76
2022/01/13 08:27:08;;;;;;;;;95.00;69.33;;;;;21.38;46.88;101970.02;112369;1240;19560;-76
2022/01/13 08:29:35;;;;;;;;;96.33;69.00;;;;;21.44;46.87;101963.92;112405;1241;18585;-77
2022/01/13 08:32:01;;;;;;;;;93.00;67.50;;;;;21.49;46.72;101970.66;112412;1242;18800;-76
2022/01/13 08:34:29;;;;;;;;;87.33;63.00;;;;;21.50;47.18;101974.99;112388;1241;22154;-74
2022/01/13 08:36:56;;;;;;;;;89.00;63.00;;;;;21.49;46.88;101971.21;112406;1242;18584;-76
2022/01/13 08:39:22;;;;;;;;;81.00;57.33;;;;;21.53;46.93;101968.52;112255;1242;18755;-76
2022/01/13 08:41:49;;;;;;;;;71.33;57.33;;;;;21.53;46.81;101975.40;112482;1242;19555;-76
2022/01/13 08:44:15;;;;;;;;;79.33;59.33;;;;;21.54;46.86;101969.10;112402;1241;18753;-76
2022/01/13 08:46:43;;;;;;;;;72.33;54.33;;;;;21.53;47.04;101965.75;112343;1242;19293;-76
2022/01/13 08:49:09;;;;;;;;;72.67;52.33;;;;;21.52;46.97;101966.75;112395;1241;19351;-77
2022/01/13 08:51:36;;;;;;;;;75.33;56.00;;;;;21.52;46.89;101960.25;112443;1242;19027;-77
2022/01/13 08:54:03;;;;;;;;;73.33;54.67;;;;;21.51;46.98;101962.45;112367;1242;18856;-75
2022/01/13 08:56:29;;;;;;;;;69.33;53.00;;;;;21.50;47.24;101960.96;112415;1241;19409;-76
2022/01/13 08:58:56;;;;;;;;;72.33;51.67;;;;;21.47;47.08;101970.30;112390;1242;18576;-76
2022/01/13 09:01:22;;;;;;;;;66.67;49.67;;;;;21.50;46.92;101968.21;112412;1242;18839;-76
2022/01/13 09:03:48;;;;;;;;;74.00;49.50;;;;;21.48;46.86;101963.33;112436;1241;19420;-76
2022/01/13 09:06:15;;;;;;;;;66.67;48.33;;;;;21.50;46.73;101963.48;112304;1241;18661;-75
2022/01/13 09:08:41;;;;;;;;;66.00;48.33;;;;;21.52;46.90;101961.27;112417;1241;18859;-76
2022/01/13 09:11:07;;;;;;;;;67.33;50.00;;;;;21.52;46.99;101960.75;112399;1241;19430;-76
2022/01/13 09:13:37;;;;;;;;;64.33;49.00;;;;;21.50;47.05;101954.79;112482;1242;18569;-76
2022/01/13 09:16:14;;;;;;;;;56.67;44.00;;;;;21.51;47.06;101950.61;112427;1241;18897;-77
2022/01/13 09:18:58;;;;;;;;;55.33;43.33;;;;;21.53;47.61;101946.42;112471;1242;19536;-76
2022/01/13 09:21:25;;;;;;;;;60.50;44.50;;;;;21.57;48.00;101943.68;112462;1241;18730;-78
2022/01/13 09:23:51;;;;;;;;;59.00;45.33;;;;;21.58;48.35;101931.57;112429;1242;22388;-75
2022/01/13 09:26:17;;;;;;;;;55.67;42.00;;;;;21.60;49.39;101922.30;112464;1242;19165;-76
2022/01/13 09:28:43;;;;;;;;;56.33;44.00;;;;;21.60;49.88;101923.53;112444;1241;18703;-78
2022/01/13 09:31:10;;;;;;;;;50.67;42.00;;;;;21.59;49.72;101924.40;112528;1242;20315;-75
2022/01/13 09:33:36;;;;;;;;;52.50;41.50;;;;;21.55;49.78;101921.36;112449;1242;21768;-76
2022/01/13 09:36:02;;;;;;;;;53.33;39.00;;;;;21.56;49.59;101928.55;112461;1242;18742;-76
2022/01/13 09:38:29;;;;;;;;;45.67;40.00;;;;;21.56;49.82;101924.56;112485;1241;18737;-76
2022/01/13 09:40:56;;;;;;;;;43.33;38.00;;;;;21.56;49.74;101924.88;112457;1242;19707;-76
2022/01/13 09:43:22;;;;;;;;;41.67;35.67;;;;;21.56;49.39;101919.28;112455;1242;18718;-77
2022/01/13 09:45:49;;;;;;;;;45.67;38.00;;;;;21.56;49.39;101921.60;112477;1242;18706;-76
2022/01/13 09:48:15;;;;;;;;;46.67;38.67;;;;;21.55;49.46;101921.84;112470;1241;19413;-77
2022/01/13 09:50:41;;;;;;;;;40.00;35.00;;;;;21.54;49.41;101922.55;112458;1241;18583;-76
2022/01/13 09:53:08;;;;;;;;;42.00;32.50;;;;;21.56;49.22;101920.27;112449;1242;18757;-76
2022/01/13 09:55:34;;;;;;;;;36.67;32.33;;;;;21.57;49.17;101910.97;112472;1240;20825;-76
2022/01/13 09:58:05;;;;;;;;;43.00;35.33;;;;;21.57;49.13;101909.34;112460;1242;18568;-76
2022/01/13 10:00:31;;;;;;;;;33.33;31.00;;;;;21.55;48.97;101906.83;112455;1241;18633;-76
2022/01/13 10:02:58;;;;;;;;;33.67;30.00;;;;;21.53;49.05;101901.77;112464;1241;19379;-75
2022/01/13 10:05:25;;;;;;;;;36.00;33.33;;;;;21.52;48.96;101898.74;112455;1242;22949;-77
2022/01/13 10:07:51;;;;;;;;;34.67;30.00;;;;;21.52;49.15;101892.54;112457;1241;18815;-74
2022/01/13 10:10:17;;;;;;;;;38.33;32.33;;;;;21.55;49.00;101890.09;112445;1242;22337;-76
2022/01/13 10:12:44;;;;;;;;;36.00;29.50;;;;;21.52;49.20;101881.10;112454;1241;18412;-76
2022/01/13 10:17:54;;;;;;;;;30.33;25.00;;;;;21.52;48.58;101886.89;112472;1241;19601;-76
2022/01/13 10:20:20;;;;;;;;;36.33;27.00;;;;;21.51;48.42;101885.73;112396;1241;18669;-76
2022/01/13 10:22:46;;;;;;;;;31.00;27.00;;;;;21.48;48.22;101879.48;112406;1241;18851;-76
2022/01/13 10:25:12;;;;;;;;;37.33;29.33;;;;;21.49;48.27;101873.99;112414;1241;19435;-74
2022/01/13 10:27:39;;;;;;;;;28.67;25.00;;;;;21.48;48.29;101877.54;112309;1241;23715;-78
2022/01/13 10:30:07;;;;;;;;;30.50;25.00;;;;;21.42;48.57;101880.06;112438;1242;18962;-76
2022/01/13 10:32:33;;;;;;;;;30.33;27.67;;;;;21.44;48.20;101876.64;112409;1242;19436;-76
2022/01/13 10:35:00;;;;;;;;;31.50;28.50;;;;;21.46;48.39;101869.52;112394;1242;18866;-75
2022/01/13 10:37:26;;;;;;;;;30.00;25.00;;;;;21.47;48.37;101869.56;112467;1242;18865;-78
2022/01/13 10:39:52;;;;;;;;;32.33;26.00;;;;;21.47;48.55;101863.77;112469;1241;22932;-76
2022/01/13 10:43:05;;;;;;;;;23.67;21.33;;;;;21.46;48.18;101859.13;112474;1242;22268;-76
2022/01/13 10:45:20;;;;;;;;;25.00;22.00;;;;;21.46;48.42;101859.32;112457;1242;18658;-76
2022/01/13 10:47:46;;;;;;;;;28.67;25.67;;;;;21.45;48.43;101850.48;112466;1241;19337;-76
2022/01/13 10:50:12;;;;;;;;;28.33;21.00;;;;;21.43;48.33;101849.04;112374;1242;19325;-75
2022/01/13 10:52:38;;;;;;;;;24.00;20.50;;;;;21.44;48.33;101847.00;112393;1241;22977;-73
2022/01/13 10:55:05;;;;;;;;;28.50;21.50;;;;;21.43;48.02;101847.47;112261;1241;19713;-76
2022/01/13 10:57:31;;;;;;;;;23.00;20.67;;;;;21.44;48.04;101843.35;112255;1242;18887;-76
2022/01/13 10:59:57;;;;;;;;;24.00;21.00;;;;;21.45;48.09;101848.67;112354;1241;18666;-76
2022/01/13 11:02:23;;;;;;;;;24.00;21.00;;;;;21.45;48.24;101847.48;112444;1242;19443;-76
2022/01/13 11:04:50;;;;;;;;;25.00;20.00;;;;;21.43;48.17;101840.89;112457;1242;18621;-75
2022/01/13 11:07:16;;;;;;;;;21.00;18.00;;;;;21.42;48.25;101836.66;112447;1241;20355;-74
2022/01/13 11:09:44;;;;;;;;;21.50;19.00;;;;;21.41;48.15;101839.83;112433;1242;19681;-76
2022/01/13 11:12:11;;;;;;;;;24.33;20.67;;;;;21.41;48.40;101843.67;112497;1241;18665;-77
2022/01/13 11:14:42;;;;;;;;;22.00;21.00;;;;;21.41;48.17;101846.64;112475;1242;18855;-75
2022/01/13 11:17:10;;;;;;;;;23.33;19.33;;;;;21.40;48.27;101853.91;112694;1242;22357;-78
2022/01/13 11:19:36;;;;;;;;;27.00;20.67;;;;;21.40;48.00;101849.21;112734;1241;18692;-74
2022/01/13 11:22:03;;;;;;;;;23.33;19.33;;;;;21.40;48.04;101851.75;112441;1242;18839;-76
2022/01/13 11:24:31;;;;;;;;;25.00;22.00;;;;;21.38;47.92;101849.98;112482;1242;19394;-74
2022/01/13 11:26:57;;;;;;;;;19.33;16.33;;;;;21.31;47.56;101846.64;112456;1241;18584;-75
2022/01/13 11:29:24;;;;;;;;;24.00;20.67;;;;;21.22;47.26;101846.27;111483;1242;1243267;-75
2022/01/13 11:31:50;;;;;;;;;25.33;23.67;;;;;21.12;47.26;101849.99;112477;1241;18324;-74
2022/01/13 11:34:17;;;;;;;;;21.50;20.50;;;;;21.05;46.81;101843.96;112469;1242;18736;-73
2022/01/13 11:36:43;;;;;;;;;27.67;21.33;;;;;21.07;46.01;101836.48;112389;1241;18736;-74
2022/01/13 11:39:10;;;;;;;;;27.33;22.00;;;;;21.18;46.24;101836.88;112483;1241;20590;-75
2022/01/13 11:41:36;;;;;;;;;24.33;20.00;;;;;21.29;46.15;101836.27;112555;1241;18668;-73
2022/01/13 11:44:03;;;;;;;;;23.33;20.67;;;;;21.25;45.77;101831.38;112466;1242;18698;-75
2022/01/13 11:46:29;;;;;;;;;20.33;18.00;;;;;21.24;45.68;101825.66;112515;1241;19382;-75
2022/01/13 11:48:55;;;;;;;;;22.33;21.00;;;;;21.25;45.65;101821.38;112418;1242;18623;-76
2022/01/13 11:51:22;;;;;;;;;23.00;21.00;;;;;21.31;45.98;101820.08;112442;1241;18762;-75